createdAt,value
2019-05-21T00:00:31.899Z,17.60
2019-05-21T00:05:54.825Z,17.57
2019-05-21T00:11:18.276Z,22.00
2019-05-21T00:16:41.574Z,17.33
2019-05-21T00:22:05.090Z,17.67
2019-05-21T00:27:28.510Z,18.17
2019-05-21T00:33:28.164Z,17.50
2019-05-21T00:39:27.511Z,17.70
2019-05-21T00:44:51.056Z,16.93
2019-05-21T00:50:15.004Z,16.93
2019-05-21T00:55:37.980Z,16.40
2019-05-21T01:01:01.477Z,17.07
2019-05-21T01:06:24.947Z,16.40
2019-05-21T01:11:48.135Z,17.07
2019-05-21T01:17:11.269Z,17.03
2019-05-21T01:22:34.778Z,15.30
2019-05-21T01:27:58.336Z,15.87
2019-05-21T01:33:21.515Z,20.67
2019-05-21T01:38:45.316Z,16.20
2019-05-21T01:44:08.043Z,14.67
2019-05-21T01:49:31.316Z,14.13
2019-05-21T01:54:54.471Z,13.77
2019-05-21T02:00:18.107Z,13.83
2019-05-21T02:05:41.463Z,12.97
2019-05-21T02:11:05.273Z,12.20
2019-05-21T02:16:28.513Z,13.07
2019-05-21T02:21:51.851Z,13.40
2019-05-21T02:27:15.473Z,13.17
2019-05-21T02:32:39.158Z,13.57
2019-05-21T02:38:02.212Z,12.03
2019-05-21T02:43:25.264Z,12.07
2019-05-21T02:48:48.905Z,13.67
2019-05-21T02:54:12.205Z,12.77
2019-05-21T02:59:35.751Z,12.90
2019-05-21T03:04:58.959Z,13.53
2019-05-21T03:10:22.088Z,12.97
2019-05-21T03:15:45.228Z,14.37
2019-05-21T03:21:09.074Z,15.57
2019-05-21T03:26:32.202Z,13.97
2019-05-21T03:31:55.332Z,15.03
2019-05-21T03:37:18.900Z,14.07
2019-05-21T03:42:41.978Z,14.47
2019-05-21T03:48:05.367Z,13.97
2019-05-21T03:53:28.615Z,16.43
2019-05-21T03:58:52.304Z,22.93
2019-05-21T04:04:15.480Z,14.87
2019-05-21T04:09:38.932Z,15.17
2019-05-21T04:15:19.643Z,14.40
2019-05-21T04:20:42.435Z,38.80
2019-05-21T04:26:05.651Z,15.57
2019-05-21T04:31:28.900Z,19.60
2019-05-21T04:37:09.282Z,14.87
2019-05-21T04:42:16.751Z,15.77
2019-05-21T04:47:40.162Z,31.17
2019-05-21T04:53:03.809Z,14.37
2019-05-21T04:58:27.479Z,21.50
2019-05-21T05:03:50.206Z,15.00
2019-05-21T05:09:13.543Z,14.07
2019-05-21T05:14:36.743Z,17.87
2019-05-21T05:20:00.245Z,21.07
2019-05-21T05:25:23.595Z,13.63
2019-05-21T05:30:46.977Z,13.43
2019-05-21T05:36:09.934Z,14.73
2019-05-21T05:41:33.493Z,13.97
2019-05-21T05:46:57.152Z,14.07
2019-05-21T05:52:20.328Z,13.47
2019-05-21T05:57:43.643Z,12.00
2019-05-21T06:03:07.313Z,20.83
2019-05-21T06:08:30.830Z,14.20
2019-05-21T06:13:53.684Z,13.47
2019-05-21T06:19:16.902Z,13.17
2019-05-21T06:24:40.469Z,12.53
2019-05-21T06:30:05.825Z,12.93
2019-05-21T06:35:29.634Z,12.00
2019-05-21T06:40:53.017Z,12.50
2019-05-21T06:46:16.107Z,12.43
2019-05-21T06:51:39.784Z,11.00
2019-05-21T19:13:27.259Z,4.63
2019-05-21T19:18:49.918Z,4.30
2019-05-21T19:23:54.777Z,4.93
2019-05-21T19:28:59.695Z,5.97
2019-05-21T19:34:04.895Z,6.47
2019-05-21T19:39:10.041Z,6.47
2019-05-21T19:44:15.043Z,7.77
2019-05-21T19:49:19.987Z,7.75
2019-05-21T19:54:24.934Z,7.30
2019-05-21T19:59:30.063Z,8.33
2019-05-21T20:04:35.343Z,8.27
2019-05-21T20:09:42.052Z,9.43
2019-05-21T20:14:47.768Z,9.70
2019-05-21T20:19:53.179Z,9.83
2019-05-21T20:24:58.062Z,7.50
2019-05-21T20:30:12.094Z,8.27
2019-05-21T20:35:12.260Z,8.70
2019-05-21T20:40:17.361Z,6.20
2019-05-21T20:45:22.428Z,5.78
2019-05-21T20:50:27.752Z,5.50
2019-05-21T20:55:32.812Z,6.20
2019-05-21T21:00:40.114Z,5.97
2019-05-21T21:05:45.303Z,4.03
2019-05-21T21:10:50.356Z,3.20
2019-05-21T21:15:55.443Z,3.23
2019-05-21T21:21:01.270Z,3.43
2019-05-21T21:26:06.782Z,3.13
2019-05-21T21:31:11.742Z,3.30
2019-05-21T21:36:17.014Z,3.80
2019-05-21T21:41:22.377Z,3.95
2019-05-21T21:46:27.331Z,4.43
2019-05-21T21:51:32.665Z,3.40
2019-05-21T21:56:37.562Z,3.87
2019-05-21T22:01:51.204Z,4.47
2019-05-21T22:06:56.591Z,4.97
2019-05-21T22:12:03.661Z,4.78
2019-05-21T22:17:10.449Z,4.65
2019-05-21T22:22:16.261Z,5.25
2019-05-21T22:27:22.079Z,4.73
2019-05-21T22:32:27.114Z,5.67
2019-05-21T22:37:32.149Z,6.63
2019-05-21T22:42:37.043Z,8.63
2019-05-21T22:47:42.008Z,9.47
2019-05-21T22:52:46.867Z,10.23
2019-05-21T22:57:51.782Z,10.80
2019-05-21T23:02:58.889Z,12.80
2019-05-21T23:08:05.413Z,12.33
2019-05-21T23:13:10.298Z,14.67
2019-05-21T23:18:15.716Z,15.70
2019-05-21T23:23:20.592Z,17.92
2019-05-21T23:28:26.409Z,18.07
2019-05-21T23:33:31.813Z,22.23
2019-05-21T23:38:37.837Z,22.57
2019-05-21T23:43:42.761Z,25.23
2019-05-21T23:48:48.709Z,26.37
2019-05-21T23:53:54.556Z,28.40
2019-05-21T23:59:00.053Z,30.13
